createdAt,value
2018-09-22T09:32:08.263Z,2.63
2018-09-22T09:34:38.164Z,2.60
2018-09-22T09:37:07.377Z,2.07
2018-09-22T09:39:36.863Z,2.87
2018-09-22T09:42:05.704Z,2.93
2018-09-22T09:44:36.146Z,2.27
2018-09-22T09:47:06.920Z,2.43
2018-09-22T09:49:36.100Z,2.10
2018-09-22T09:52:08.201Z,2.37
2018-09-22T09:54:38.181Z,2.27
2018-09-22T09:57:08.943Z,2.40
2018-09-22T09:59:38.998Z,2.07
2018-09-22T10:02:09.182Z,2.37
2018-09-22T10:04:38.342Z,2.50
2018-09-22T10:07:11.463Z,2.87
2018-09-22T10:09:41.009Z,2.33
2018-09-22T10:12:10.510Z,2.30
2018-09-22T10:14:40.845Z,2.40
2018-09-22T10:17:10.714Z,2.13
2018-09-22T10:19:43.506Z,2.60
2018-09-22T10:22:15.330Z,1.93
2018-09-22T10:24:44.295Z,1.97
2018-09-22T10:27:14.302Z,2.50
2018-09-22T10:29:45.299Z,2.47
2018-09-22T10:32:14.714Z,2.50
2018-09-22T10:34:44.366Z,2.53
2018-09-22T10:37:14.736Z,2.93
2018-09-22T10:39:44.515Z,2.17
2018-09-22T10:42:13.372Z,2.37
2018-09-22T10:44:43.238Z,2.13
2018-09-22T10:47:12.623Z,2.50
2018-09-22T10:49:43.092Z,2.40
2018-09-22T10:52:12.810Z,2.27
2018-09-22T10:54:44.574Z,2.20
2018-09-22T10:57:14.796Z,2.07
2018-09-22T10:59:44.979Z,2.00
2018-09-22T11:02:15.780Z,2.40
2018-09-22T11:04:45.323Z,2.87
2018-09-22T11:07:15.653Z,2.10
2018-09-22T11:09:44.468Z,2.20
2018-09-22T11:21:31.733Z,2.20
2018-09-22T11:26:37.839Z,2.07
2018-09-22T11:29:06.670Z,2.03
2018-09-22T11:31:37.107Z,1.97
2018-09-22T11:34:06.574Z,2.27
2018-09-22T11:36:36.694Z,2.10
2018-09-22T11:39:08.885Z,1.93
2018-09-22T11:41:38.178Z,2.40
2018-09-22T11:44:27.952Z,2.90
2018-09-22T11:46:57.543Z,2.30
2018-09-22T11:49:27.954Z,2.60
2018-09-22T11:52:02.424Z,2.50
2018-09-22T11:54:36.108Z,2.50
2018-09-22T11:57:05.592Z,2.43
2018-09-22T11:59:36.748Z,2.10
2018-09-22T12:02:05.703Z,2.07
2018-09-22T12:04:38.383Z,2.50
2018-09-22T12:07:08.250Z,1.70
2018-09-22T12:09:38.162Z,1.73
2018-09-22T12:12:11.972Z,1.20
2018-09-22T12:14:42.128Z,1.70
2018-09-22T12:17:11.322Z,1.97
2018-09-22T12:19:40.515Z,1.50
2018-09-22T12:22:11.152Z,1.50
2018-09-22T12:24:40.783Z,1.93
2018-09-22T12:27:10.280Z,1.70
2018-09-22T12:29:43.315Z,2.40
2018-09-22T12:32:18.798Z,2.27
2018-09-22T12:34:48.344Z,2.13
2018-09-22T12:37:17.070Z,2.00
2018-09-22T12:39:45.754Z,2.57
2018-09-22T12:42:17.866Z,2.00
2018-09-22T12:44:47.615Z,0.83
2018-09-22T12:47:16.874Z,1.07
2018-09-22T12:50:01.084Z,0.90
2018-09-22T12:52:39.028Z,0.70
2018-09-22T12:55:08.332Z,1.07
2018-09-22T12:57:38.630Z,1.50
2018-09-22T13:00:08.160Z,1.50
2018-09-22T13:02:37.992Z,1.47
2018-09-22T13:05:07.820Z,1.77
2018-09-22T13:07:38.053Z,1.43
2018-09-22T13:10:09.569Z,1.63
2018-09-22T13:12:49.442Z,1.80
2018-09-22T13:15:24.350Z,2.30
2018-09-22T13:17:55.486Z,2.13
2018-09-22T13:20:25.291Z,2.43
2018-09-22T13:22:55.934Z,3.50
2018-09-22T13:25:24.514Z,3.00
2018-09-22T13:27:53.958Z,2.80
2018-09-22T13:30:24.222Z,3.37
2018-09-22T20:14:03.905Z,9.43
2018-09-22T20:16:33.454Z,10.67
2018-09-22T20:19:02.648Z,11.90
2018-09-22T20:21:32.310Z,11.57
2018-09-22T20:24:03.033Z,12.57
2018-09-22T20:26:32.734Z,12.20
2018-09-22T20:29:02.306Z,12.67
2018-09-22T20:31:33.825Z,12.70
2018-09-22T20:34:06.519Z,12.83
2018-09-22T21:34:09.320Z,8.47
2018-09-22T21:36:38.113Z,9.00
2018-09-22T21:39:15.912Z,13.00
